Time;durP1;ratioP1;P1;durP2;ratioP2;P2;SDS_P1;SDS_P2;PMS_P1;PMS_P2;Temp;Humidity;BMP_temperature;BMP_pressure;BME280_temperature;BME280_humidity;BME280_pressure;Samples;Min_cycle;Max_cycle;Signal;HPM_P1;HPM_P2
2023/05/08 11:41:31;;;;;;;5.00;1.95;;;;;;;18.73;31.06;101978.44;4999451;27;20170;-49
2023/05/08 11:44:01;;;;;;;4.28;2.03;;;;;;;18.90;30.57;101979.91;5003615;28;20626;-52
2023/05/08 11:47:00;;;;;;;2.65;1.50;;;;;;;19.10;30.74;101971.31;5029637;28;20058;-51
2023/05/08 11:49:28;;;;;;;5.15;2.90;;;;;;;19.23;30.48;101965.91;5003932;28;20076;-47
2023/05/08 11:51:57;;;;;;;2.63;1.67;;;;;;;19.55;29.56;101971.53;5000386;28;20395;-50
2023/05/08 11:54:28;;;;;;;5.07;1.70;;;;;;;19.65;29.38;101963.69;4994429;28;20655;-48
2023/05/08 11:56:56;;;;;;;3.85;1.70;;;;;;;19.76;28.61;101963.69;5008093;28;20050;-47
2023/05/08 11:59:23;;;;;;;2.92;1.55;;;;;;;19.79;28.43;101962.63;5013911;28;20052;-50
2023/05/08 12:01:51;;;;;;;5.25;1.70;;;;;;;19.77;27.99;101969.91;5005401;28;20195;-48
2023/05/08 12:04:21;;;;;;;1.90;1.63;;;;;;;19.82;28.36;101957.06;4991806;28;20061;-50
2023/05/08 12:06:50;;;;;;;4.22;1.85;;;;;;;20.10;28.13;101958.44;4991388;28;20050;-50
2023/05/08 12:09:19;;;;;;;3.75;1.50;;;;;;;20.08;27.38;101957.69;4994168;28;20065;-52
2023/05/08 12:11:46;;;;;;;5.93;1.73;;;;;;;20.14;28.20;101962.59;4989910;28;20047;-52
2023/05/08 12:14:16;;;;;;;4.53;2.25;;;;;;;20.35;27.49;101962.69;4989537;28;20080;-48
2023/05/08 12:16:43;;;;;;;4.47;1.60;;;;;;;20.46;27.80;101962.72;5011783;28;20592;-48
2023/05/08 12:19:12;;;;;;;2.05;1.60;;;;;;;20.61;27.43;101964.19;4994090;28;20058;-49
2023/05/08 12:21:47;;;;;;;5.57;1.42;;;;;;;20.61;27.29;101956.16;5001140;28;20084;-49
2023/05/08 12:24:21;;;;;;;4.25;1.48;;;;;;;20.64;26.91;101955.06;4989851;28;20049;-49
2023/05/08 12:26:53;;;;;;;3.30;1.60;;;;;;;20.43;27.26;101947.75;4997865;28;20050;-49
2023/05/08 12:29:20;;;;;;;2.22;1.50;;;;;;;20.58;27.33;101947.53;4996365;28;20061;-47
2023/05/08 12:31:48;;;;;;;4.68;1.58;;;;;;;20.79;27.00;101948.47;5008470;28;20514;-49
2023/05/08 12:34:15;;;;;;;3.58;1.50;;;;;;;20.92;25.64;101959.03;4997666;28;20066;-49
2023/05/08 12:36:43;;;;;;;3.67;1.38;;;;;;;21.00;26.39;101956.59;4983795;28;20072;-51
2023/05/08 12:39:17;;;;;;;4.50;1.60;;;;;;;20.93;25.49;101966.94;4993421;28;20498;-53
2023/05/08 12:41:48;;;;;;;7.80;1.75;;;;;;;20.83;25.74;101941.03;4990147;28;20498;-51
2023/05/08 12:44:19;;;;;;;3.15;1.50;;;;;;;20.97;25.82;101938.94;4988114;28;20406;-48
2023/05/08 12:46:51;;;;;;;4.28;1.30;;;;;;;21.19;25.95;101942.53;4999952;28;20057;-49
2023/05/08 12:49:27;;;;;;;6.53;1.88;;;;;;;21.52;25.80;101941.53;4997170;28;20073;-48
2023/05/08 12:52:05;;;;;;;10.13;2.38;;;;;;;21.72;25.32;101943.41;4993567;28;20636;-47
2023/05/08 12:54:38;;;;;;;2.65;1.25;;;;;;;21.91;24.83;101942.66;5007321;28;20546;-48
2023/05/08 12:57:12;;;;;;;2.97;1.75;;;;;;;22.00;23.66;101932.97;4984369;28;20058;-53
2023/05/08 12:59:40;;;;;;;2.75;1.30;;;;;;;22.14;23.34;101938.03;4979605;28;20068;-48
2023/05/08 13:02:12;;;;;;;6.70;1.60;;;;;;;22.26;23.13;101927.22;4983067;28;20111;-48
2023/05/08 13:04:39;;;;;;;2.65;1.45;;;;;;;21.95;22.98;101930.69;4975961;28;20407;-48
2023/05/08 13:07:07;;;;;;;3.53;1.48;;;;;;;22.09;23.79;101931.34;4992421;28;20062;-47
2023/05/08 13:09:35;;;;;;;2.97;1.67;;;;;;;22.09;23.34;101929.50;4984677;28;20061;-47
2023/05/08 13:12:02;;;;;;;5.13;1.77;;;;;;;22.19;24.34;101919.69;4980537;28;20043;-47
2023/05/08 13:14:29;;;;;;;3.53;1.70;;;;;;;22.44;24.07;101929.13;4982612;28;20054;-47
2023/05/08 13:16:57;;;;;;;7.10;1.55;;;;;;;22.58;23.98;101913.63;4990864;28;20395;-48
2023/05/08 13:19:26;;;;;;;2.67;1.58;;;;;;;22.96;24.57;101897.59;4980727;28;20059;-47
2023/05/08 13:21:53;;;;;;;7.93;2.10;;;;;;;23.27;24.49;101902.84;4984520;28;20072;-48
2023/05/08 13:28:39;;;;;;;;;;;;;;;23.38;22.73;101891.97;4962394;28;20541;-47
2023/05/08 13:31:06;;;;;;;2.88;1.48;;;;;;;23.52;21.82;101892.50;4975428;28;19952;-50
2023/05/08 13:33:34;;;;;;;2.97;1.50;;;;;;;23.50;21.92;101889.94;4968237;28;20521;-46
2023/05/08 13:36:01;;;;;;;4.38;1.52;;;;;;;23.79;22.10;101889.09;4977683;28;20050;-48
2023/05/08 13:49:09;;;;;;;3.63;1.73;;;;;;;24.25;21.69;101872.88;4972644;28;20065;-47
2023/05/08 13:51:36;;;;;;;4.25;1.67;;;;;;;24.68;22.25;101867.88;4978615;28;20055;-47
2023/05/08 13:54:03;;;;;;;2.83;1.65;;;;;;;24.74;20.69;101861.88;4973742;28;20647;-44
2023/05/08 13:56:31;;;;;;;2.10;1.52;;;;;;;25.27;21.10;101865.56;4982322;28;20065;-47
2023/05/08 13:58:58;;;;;;;4.97;1.85;;;;;;;25.56;19.93;101870.66;4978376;28;20054;-48
2023/05/08 14:01:26;;;;;;;3.08;1.65;;;;;;;26.25;19.04;101865.19;4983020;28;20046;-49
2023/05/08 14:03:54;;;;;;;3.90;1.52;;;;;;;27.57;18.41;101855.41;4982158;28;20161;-48
2023/05/08 14:06:21;;;;;;;3.28;1.60;;;;;;;29.58;17.59;101871.72;4984180;28;20046;-47
2023/05/08 14:08:49;;;;;;;2.47;1.75;;;;;;;30.67;16.23;101863.78;4996167;28;20044;-47
2023/05/08 14:11:21;;;;;;;3.17;1.67;;;;;;;32.03;14.75;101851.72;4980852;28;20516;-50
2023/05/08 14:13:48;;;;;;;8.07;1.80;;;;;;;32.82;13.24;101853.84;4981152;28;20061;-48
2023/05/08 14:20:19;;;;;;;2.05;1.73;;;;;;;35.34;11.95;101849.38;4981799;28;20057;-47
2023/05/08 14:22:46;;;;;;;4.25;2.17;;;;;;;36.38;11.15;101859.38;4977193;28;20043;-46
2023/05/08 14:25:13;;;;;;;4.45;2.30;;;;;;;35.83;10.99;101853.09;4977095;28;20054;-46
2023/05/08 14:27:41;;;;;;;2.88;2.55;;;;;;;36.09;10.53;101843.75;4976963;28;20056;-47
2023/05/08 14:30:09;;;;;;;7.70;2.95;;;;;;;37.37;10.69;101843.25;4969108;28;20058;-48
2023/05/08 14:32:36;;;;;;;3.33;3.00;;;;;;;37.39;10.22;101849.41;4978772;28;20511;-47
2023/05/08 14:35:03;;;;;;;3.63;3.30;;;;;;;38.77;9.81;101848.66;4974408;28;20097;-47
2023/05/08 14:37:30;;;;;;;7.55;3.70;;;;;;;39.81;9.28;101845.28;4972742;28;20103;-47
2023/05/08 14:39:58;;;;;;;5.15;4.70;;;;;;;41.30;8.50;101852.06;4977816;28;20062;-50
2023/05/08 14:42:25;;;;;;;5.80;5.30;;;;;;;42.49;8.07;101842.03;4978597;28;20364;-46
2023/05/08 14:44:52;;;;;;;6.95;6.45;;;;;;;42.91;7.41;101848.44;4972439;28;20053;-53
2023/05/08 14:47:19;;;;;;;8.35;7.85;;;;;;;44.15;7.19;101854.22;4967704;28;20059;-49
2023/05/08 14:49:47;;;;;;;9.00;8.30;;;;;;;43.14;6.99;101847.91;4971179;28;20664;-51
2023/05/08 14:52:14;;;;;;;9.13;8.45;;;;;;;42.38;6.99;101842.31;4961226;28;20545;-52
2023/05/08 14:54:42;;;;;;;9.80;8.70;;;;;;;43.58;6.84;101850.00;4975532;28;20545;-50
2023/05/08 14:57:09;;;;;;;11.60;10.90;;;;;;;44.31;6.14;101849.41;4971138;28;20529;-47
2023/05/08 14:59:36;;;;;;;12.68;12.00;;;;;;;43.92;6.32;101843.81;4978181;28;20046;-48
2023/05/08 15:02:16;;;;;;;13.07;12.38;;;;;;;43.43;6.08;101848.13;4974792;28;20045;-48
2023/05/08 15:04:44;;;;;;;13.73;12.75;;;;;;;42.60;6.53;101855.88;4980078;28;20096;-47
2023/05/08 15:07:12;;;;;;;14.05;13.05;;;;;;;43.46;6.28;101849.53;4980787;28;20077;-51
2023/05/08 15:09:39;;;;;;;14.20;13.20;;;;;;;43.97;6.47;101852.91;4974638;28;20109;-48
2023/05/08 15:12:06;;;;;;;13.25;12.23;;;;;;;42.49;6.97;101847.56;4973036;28;20386;-50
2023/05/08 15:14:33;;;;;;;13.43;12.63;;;;;;;41.68;7.39;101842.59;4969399;28;20058;-51
2023/05/08 15:17:00;;;;;;;13.23;12.43;;;;;;;42.78;6.84;101841.50;4973967;28;20061;-48
2023/05/08 15:19:28;;;;;;;14.00;13.20;;;;;;;43.95;6.79;101840.44;4971562;28;20081;-45
2023/05/08 15:21:55;;;;;;;16.30;15.35;;;;;;;44.54;6.89;101839.53;4981385;28;20043;-48
2023/05/08 15:24:22;;;;;;;18.25;17.23;;;;;;;45.43;6.35;101839.28;4979207;28;20062;-47
2023/05/08 15:26:49;;;;;;;17.63;16.60;;;;;;;44.54;6.23;101831.22;4975479;28;20689;-49
2023/05/08 15:29:17;;;;;;;17.75;16.60;;;;;;;44.72;6.53;101846.38;4973101;28;20145;-47
2023/05/08 15:31:44;;;;;;;16.35;15.48;;;;;;;42.95;6.90;101838.47;4976097;28;20050;-45
2023/05/08 15:34:11;;;;;;;14.82;13.80;;;;;;;42.80;6.95;101835.72;4982074;28;20054;-46
2023/05/08 15:40:50;;;;;;;14.07;13.05;;;;;;;42.38;7.20;101840.38;4957561;28;20164;-49
2023/05/08 15:43:17;;;;;;;13.32;12.52;;;;;;;41.71;7.02;101841.25;4965932;28;20064;-48
2023/05/08 15:45:45;;;;;;;11.40;10.70;;;;;;;40.65;7.41;101833.84;4974640;28;20537;-49
2023/05/08 15:48:12;;;;;;;10.52;9.88;;;;;;;39.76;7.73;101826.75;4962055;28;20058;-48
2023/05/08 15:50:39;;;;;;;7.40;6.90;;;;;;;38.49;8.10;101829.16;4968976;28;20054;-49
2023/05/08 15:53:06;;;;;;;7.70;7.00;;;;;;;39.80;7.47;101816.06;4972829;28;20072;-50
2023/05/08 15:55:33;;;;;;;7.05;6.55;;;;;;;40.21;7.57;101815.44;4978513;28;20069;-48
2023/05/08 15:58:01;;;;;;;7.50;6.80;;;;;;;39.87;7.97;101808.44;4977618;28;20062;-48
2023/05/08 16:00:29;;;;;;;7.75;7.15;;;;;;;41.56;7.55;101814.34;4975618;28;20066;-50
2023/05/08 16:03:11;;;;;;;8.80;8.07;;;;;;;42.05;7.09;101825.06;4973951;28;20950;-48
2023/05/08 16:05:38;;;;;;;8.95;8.35;;;;;;;41.88;7.39;101817.00;4966571;28;20057;-51
2023/05/08 16:08:07;;;;;;;7.57;7.15;;;;;;;41.20;7.80;101803.06;4978811;28;20047;-47
2023/05/08 16:10:34;;;;;;;8.10;7.30;;;;;;;40.54;8.21;101810.03;4962481;28;20058;-48
2023/05/08 16:13:01;;;;;;;12.60;11.52;;;;;;;40.78;8.46;101804.97;4972653;28;20051;-49
2023/05/08 16:15:28;;;;;;;9.10;8.18;;;;;;;40.40;8.04;101798.56;4977309;28;20058;-53
2023/05/08 16:17:55;;;;;;;7.35;6.75;;;;;;;39.60;8.40;101800.09;4975994;28;20093;-48
2023/05/08 16:20:23;;;;;;;6.97;6.35;;;;;;;37.15;9.53;101792.78;4977010;28;20051;-49
2023/05/08 16:22:54;;;;;;;4.80;4.25;;;;;;;33.46;11.84;101790.50;4972600;28;20448;-49
2023/05/08 16:25:21;;;;;;;4.40;4.00;;;;;;;30.79;13.60;101779.84;4971635;28;20065;-47
2023/05/08 16:27:49;;;;;;;3.10;2.80;;;;;;;29.09;14.89;101781.81;4976908;28;20069;-48
2023/05/08 16:30:17;;;;;;;4.63;2.92;;;;;;;27.55;16.27;101779.81;4976727;28;20061;-50
2023/05/08 16:32:44;;;;;;;3.22;2.90;;;;;;;26.15;17.27;101782.63;4985295;28;20058;-47
2023/05/08 16:35:12;;;;;;;5.10;2.30;;;;;;;25.34;18.47;101773.13;4979218;28;20064;-51
2023/05/08 16:37:40;;;;;;;6.18;2.95;;;;;;;24.39;19.57;101773.84;4971891;28;20050;-51
2023/05/08 16:40:08;;;;;;;3.25;2.10;;;;;;;23.49;19.86;101770.00;4975783;28;20120;-48
2023/05/08 16:42:36;;;;;;;6.63;2.28;;;;;;;22.95;20.46;101772.38;4980814;28;20059;-47
2023/05/08 16:45:03;;;;;;;4.13;2.28;;;;;;;22.54;21.25;101767.28;4973994;28;20058;-49
2023/05/08 16:47:31;;;;;;;7.80;2.08;;;;;;;21.89;22.18;101772.22;4978185;28;20054;-51
2023/05/08 16:49:59;;;;;;;10.07;2.88;;;;;;;21.21;23.45;101770.03;4969692;28;20059;-48
2023/05/08 16:52:26;;;;;;;2.88;2.17;;;;;;;20.86;24.13;101770.34;4969347;28;20062;-50
2023/05/08 16:54:53;;;;;;;4.18;2.70;;;;;;;20.72;24.91;101778.69;4973784;28;20050;-48
2023/05/08 16:57:21;;;;;;;3.10;2.33;;;;;;;20.47;25.27;101772.69;4982478;28;20070;-50
2023/05/08 16:59:48;;;;;;;6.57;2.75;;;;;;;20.32;25.87;101762.38;4985021;28;20058;-47
2023/05/08 17:02:17;;;;;;;4.32;2.40;;;;;;;19.97;26.30;101769.63;4981745;28;20158;-48
2023/05/08 17:04:46;;;;;;;4.80;2.60;;;;;;;19.69;27.32;101768.31;4983588;28;20069;-53
2023/05/08 17:07:13;;;;;;;4.65;2.55;;;;;;;19.64;27.18;101766.97;4981796;28;20057;-52
2023/05/08 17:09:41;;;;;;;3.45;2.45;;;;;;;19.59;28.12;101766.47;4971575;28;20185;-48
2023/05/08 17:12:08;;;;;;;5.13;3.08;;;;;;;19.56;27.93;101764.88;4978453;28;20452;-50
2023/05/08 17:15:16;;;;;;;4.43;2.47;;;;;;;19.43;27.76;101762.31;4981913;28;20055;-49
2023/05/08 17:17:46;;;;;;;5.18;1.95;;;;;;;19.17;27.57;101766.16;4963638;28;20138;-50
2023/05/08 17:20:13;;;;;;;5.18;2.38;;;;;;;19.01;27.77;101766.50;4977687;28;20061;-48
2023/05/08 17:22:41;;;;;;;4.90;2.45;;;;;;;18.92;27.81;101764.53;4977521;28;20058;-49
2023/05/08 17:25:08;;;;;;;3.63;2.33;;;;;;;18.75;27.60;101759.59;4979809;28;20050;-47
2023/05/08 17:27:37;;;;;;;4.38;2.40;;;;;;;18.60;28.28;101765.09;4983609;28;20066;-48
2023/05/08 17:30:07;;;;;;;5.88;2.58;;;;;;;18.48;29.23;101763.34;4981397;28;20480;-50
2023/05/08 17:32:34;;;;;;;5.20;2.13;;;;;;;18.38;29.63;101775.66;4983166;28;20054;-47
2023/05/08 17:35:01;;;;;;;3.33;2.03;;;;;;;18.29;30.02;101763.84;4982828;28;20580;-51
2023/05/08 17:37:28;;;;;;;3.53;2.13;;;;;;;18.19;30.20;101769.00;4979918;28;20411;-50
2023/05/08 17:39:55;;;;;;;3.50;2.40;;;;;;;18.08;30.11;101770.72;4981830;28;20073;-55
2023/05/08 17:42:23;;;;;;;5.93;2.17;;;;;;;17.98;29.98;101769.69;4988278;28;20046;-56
2023/05/08 17:44:50;;;;;;;4.82;2.30;;;;;;;17.83;29.24;101763.63;4980268;28;20053;-53
2023/05/08 17:47:17;;;;;;;4.50;2.05;;;;;;;17.67;28.98;101771.84;4990268;28;20046;-56
2023/05/08 17:49:44;;;;;;;4.78;2.50;;;;;;;17.58;28.82;101764.50;4983351;28;20105;-56
2023/05/08 17:52:11;;;;;;;4.45;2.00;;;;;;;17.52;29.49;101770.28;4987390;28;20450;-56
2023/05/08 17:54:39;;;;;;;6.90;2.40;;;;;;;17.37;28.77;101773.03;4982030;28;20101;-57
2023/05/08 17:57:07;;;;;;;5.65;2.20;;;;;;;17.27;29.14;101771.97;4985542;28;20054;-54
2023/05/08 17:59:34;;;;;;;6.53;2.38;;;;;;;17.21;29.32;101775.06;4991708;28;20051;-57
2023/05/08 18:02:01;;;;;;;7.50;2.25;;;;;;;17.18;30.51;101776.09;4977262;28;20073;-54
2023/05/08 18:04:29;;;;;;;6.20;2.47;;;;;;;17.11;30.79;101777.50;4988921;28;20532;-55
2023/05/08 18:06:56;;;;;;;4.30;2.05;;;;;;;17.03;31.42;101777.16;4981497;28;20375;-58
2023/05/08 18:09:23;;;;;;;4.38;2.17;;;;;;;16.95;32.78;101771.50;4986135;28;20137;-55
2023/05/08 18:11:50;;;;;;;4.50;2.28;;;;;;;16.88;32.93;101778.16;4985984;28;20071;-54
2023/05/08 18:14:17;;;;;;;3.70;2.55;;;;;;;16.77;33.29;101780.72;4989182;28;20042;-55
2023/05/08 18:16:45;;;;;;;3.83;2.20;;;;;;;16.61;33.04;101783.47;4976800;28;20548;-57
2023/05/08 18:19:12;;;;;;;5.18;2.10;;;;;;;16.51;33.43;101787.72;4980439;28;20289;-55
2023/05/08 18:21:39;;;;;;;6.20;2.40;;;;;;;16.37;34.01;101786.81;4981137;28;20410;-56
2023/05/08 18:24:06;;;;;;;4.63;2.13;;;;;;;16.28;33.97;101789.19;4984951;28;20057;-56
2023/05/08 18:26:33;;;;;;;5.30;2.35;;;;;;;16.22;34.50;101789.59;4978419;28;20066;-53
2023/05/08 18:29:01;;;;;;;5.55;2.80;;;;;;;16.12;34.40;101792.84;4983003;28;20073;-54
2023/05/08 18:31:28;;;;;;;3.80;2.47;;;;;;;16.02;34.43;101788.19;4980865;28;20570;-54
2023/05/08 18:33:55;;;;;;;3.78;2.28;;;;;;;15.94;34.87;101799.34;4982207;28;20123;-56
2023/05/08 18:36:23;;;;;;;5.88;2.60;;;;;;;15.85;34.89;101799.88;4983064;28;20052;-55
2023/05/08 18:38:50;;;;;;;3.05;2.03;;;;;;;15.73;35.44;101801.50;4980224;28;20050;-58
2023/05/08 18:41:17;;;;;;;11.48;3.15;;;;;;;15.63;35.36;101800.34;4976110;28;20045;-58
2023/05/08 18:43:44;;;;;;;7.88;2.47;;;;;;;15.54;35.67;101804.41;4995073;28;20348;-59
2023/05/08 18:46:12;;;;;;;6.28;2.33;;;;;;;15.40;35.59;101804.38;4983308;28;20046;-57
2023/05/08 18:48:40;;;;;;;5.30;2.20;;;;;;;15.32;35.84;101811.97;4976394;28;20513;-57
2023/05/08 18:51:07;;;;;;;8.30;2.85;;;;;;;15.20;36.12;101805.59;4975927;28;20586;-53
2023/05/08 18:53:36;;;;;;;3.50;2.08;;;;;;;15.13;36.19;101807.75;4979062;28;20049;-56
2023/05/08 18:56:04;;;;;;;5.85;2.88;;;;;;;15.04;36.63;101808.31;4981775;28;20051;-59
2023/05/08 18:58:31;;;;;;;4.75;2.67;;;;;;;14.98;36.60;101819.25;4985552;28;20055;-54
2023/05/08 19:01:00;;;;;;;3.67;2.50;;;;;;;14.89;36.99;101811.84;4972252;28;20062;-57
2023/05/08 19:03:27;;;;;;;4.80;2.55;;;;;;;14.82;37.61;101819.31;4980832;28;20053;-57
2023/05/08 19:05:54;;;;;;;6.50;2.15;;;;;;;14.72;37.33;101818.09;4992711;28;20077;-56
2023/05/08 19:08:21;;;;;;;4.15;2.55;;;;;;;14.65;37.92;101820.25;4989174;28;20066;-57
2023/05/08 19:10:48;;;;;;;5.65;2.63;;;;;;;14.58;37.97;101820.69;4980265;28;20050;-58
2023/05/08 19:13:16;;;;;;;5.25;2.70;;;;;;;14.51;38.62;101819.34;4974029;28;20924;-54
2023/05/08 19:15:43;;;;;;;5.03;2.78;;;;;;;14.44;38.38;101826.72;4980901;28;20060;-59
2023/05/08 19:18:11;;;;;;;3.78;2.78;;;;;;;14.35;38.72;101827.25;4978630;28;20043;-54
2023/05/08 19:20:38;;;;;;;7.85;2.58;;;;;;;14.26;38.83;101828.59;4985421;28;20055;-58
2023/05/08 19:23:05;;;;;;;4.93;2.80;;;;;;;14.18;39.33;101831.69;4986676;28;20592;-56
2023/05/08 19:25:33;;;;;;;7.07;2.97;;;;;;;14.09;39.15;101832.16;4979106;28;20054;-52
2023/05/08 19:28:00;;;;;;;6.55;3.10;;;;;;;14.03;39.61;101826.38;4987238;28;20058;-56
2023/05/08 19:30:27;;;;;;;4.32;3.20;;;;;;;14.00;40.92;101827.38;4990027;28;20057;-56
2023/05/08 19:32:54;;;;;;;5.63;2.97;;;;;;;13.92;40.23;101827.81;4984636;28;20062;-58
2023/05/08 19:35:21;;;;;;;5.35;2.58;;;;;;;13.87;41.04;101829.00;4985922;28;20073;-57
2023/05/08 19:37:48;;;;;;;5.22;2.65;;;;;;;13.82;40.48;101828.38;4982740;28;20050;-54
2023/05/08 19:40:16;;;;;;;7.38;2.33;;;;;;;13.78;40.76;101832.09;4994813;28;20062;-56
2023/05/08 19:42:44;;;;;;;7.03;2.90;;;;;;;13.70;41.16;101831.69;4990344;28;20065;-56
2023/05/08 19:45:12;;;;;;;8.05;2.80;;;;;;;13.63;41.47;101831.13;4989196;28;20047;-57
2023/05/08 19:50:42;;;;;;;5.38;3.13;;;;;;;13.52;42.64;101822.91;4981302;28;20055;-55
2023/05/08 19:53:09;;;;;;;7.95;3.00;;;;;;;13.49;43.04;101823.91;4983783;28;20051;-58
2023/05/08 19:55:36;;;;;;;7.28;2.80;;;;;;;13.46;42.15;101828.50;4982100;28;20392;-59
2023/05/08 19:58:04;;;;;;;6.13;2.72;;;;;;;13.41;41.78;101826.94;4993374;28;20057;-59
2023/05/08 20:00:31;;;;;;;4.90;3.03;;;;;;;13.36;42.43;101830.78;5000405;28;20139;-57
2023/05/08 20:02:58;;;;;;;6.03;2.75;;;;;;;13.31;42.77;101836.31;4989099;28;20054;-57
2023/05/08 20:05:26;;;;;;;5.38;2.65;;;;;;;13.26;43.28;101838.31;4993217;28;20054;-57
2023/05/08 20:07:53;;;;;;;6.85;3.00;;;;;;;13.19;43.16;101839.53;4984569;28;20134;-51
2023/05/08 20:10:20;;;;;;;8.05;3.88;;;;;;;13.13;43.09;101840.69;4989113;28;20157;-57
2023/05/08 20:12:48;;;;;;;7.72;2.90;;;;;;;13.08;43.71;101834.78;4988149;28;20050;-57
2023/05/08 20:15:15;;;;;;;5.38;3.20;;;;;;;13.07;44.41;101841.03;4986969;28;20549;-55
2023/05/08 20:17:42;;;;;;;5.40;2.90;;;;;;;13.04;44.04;101842.94;4996062;28;20057;-56
2023/05/08 20:20:10;;;;;;;6.55;3.10;;;;;;;12.99;43.59;101839.69;4994585;28;20104;-56
2023/05/08 20:22:38;;;;;;;4.60;2.80;;;;;;;12.94;44.32;101842.56;4989628;28;20137;-54
2023/05/08 20:25:05;;;;;;;5.72;2.55;;;;;;;12.91;44.71;101840.06;4996905;28;20474;-55
2023/05/08 20:27:32;;;;;;;7.53;2.95;;;;;;;12.86;44.20;101842.06;4996375;28;20054;-57
2023/05/08 20:29:59;;;;;;;4.40;2.60;;;;;;;12.81;44.75;101833.53;4990022;28;20058;-57
2023/05/08 20:32:27;;;;;;;4.35;2.72;;;;;;;12.76;45.28;101836.38;4986300;28;20521;-56
2023/05/08 20:34:54;;;;;;;5.85;3.00;;;;;;;12.77;45.19;101834.59;4984974;28;20074;-57
2023/05/08 20:37:21;;;;;;;4.93;2.70;;;;;;;12.72;44.98;101837.47;4985108;28;20417;-55
2023/05/08 20:39:48;;;;;;;7.15;2.78;;;;;;;12.67;45.25;101832.41;4986646;28;20065;-56
2023/05/08 20:42:15;;;;;;;5.07;3.00;;;;;;;12.61;44.68;101832.72;4990444;28;20529;-57
2023/05/08 20:44:42;;;;;;;6.07;3.03;;;;;;;12.55;45.31;101835.63;4989000;28;20054;-52
2023/05/08 20:47:10;;;;;;;5.00;2.92;;;;;;;12.50;45.19;101836.78;4994976;28;20057;-57
2023/05/08 20:49:37;;;;;;;4.78;2.78;;;;;;;12.46;45.22;101828.13;4981059;28;20055;-57
2023/05/08 20:52:04;;;;;;;4.15;2.67;;;;;;;12.41;45.73;101828.34;5008891;28;20046;-58
2023/05/08 20:54:31;;;;;;;4.47;2.80;;;;;;;12.36;46.38;101832.16;4983307;28;20058;-57
2023/05/08 20:57:00;;;;;;;4.03;2.75;;;;;;;12.31;45.83;101828.88;4989012;28;20061;-57
2023/05/08 20:59:28;;;;;;;7.28;3.08;;;;;;;12.27;46.41;101835.22;4994406;28;20193;-56
2023/05/08 21:01:55;;;;;;;6.28;3.03;;;;;;;12.23;46.37;101831.88;4988941;28;20043;-54
2023/05/08 21:04:22;;;;;;;4.88;2.90;;;;;;;12.18;46.41;101827.75;4988412;28;20046;-57
2023/05/08 21:06:49;;;;;;;6.97;3.20;;;;;;;12.13;46.33;101830.59;4997391;28;20068;-55
2023/05/08 21:09:18;;;;;;;3.67;2.65;;;;;;;12.12;46.86;101834.16;4998360;28;20052;-59
2023/05/08 21:11:45;;;;;;;4.40;2.50;;;;;;;12.11;47.73;101832.44;4996965;28;20409;-55
2023/05/08 21:14:12;;;;;;;5.32;2.97;;;;;;;12.07;47.38;101838.81;4992884;28;20054;-58
2023/05/08 21:16:40;;;;;;;4.15;2.80;;;;;;;12.03;46.99;101830.16;4988573;28;20054;-60
2023/05/08 21:19:08;;;;;;;4.88;2.80;;;;;;;11.98;47.89;101832.16;4993396;28;20407;-57
2023/05/08 21:21:35;;;;;;;9.68;3.35;;;;;;;11.92;47.15;101835.06;5000999;28;20056;-53
2023/05/08 21:24:03;;;;;;;5.07;3.33;;;;;;;11.87;47.71;101840.53;4995235;28;20046;-56
2023/05/08 21:26:30;;;;;;;5.13;3.00;;;;;;;11.83;47.73;101835.47;4990607;28;20060;-56
2023/05/08 21:28:58;;;;;;;4.82;3.10;;;;;;;11.79;47.97;101829.44;4991703;28;20061;-59
2023/05/08 21:31:27;;;;;;;4.97;3.08;;;;;;;11.77;48.46;101822.53;4986083;28;20050;-55
2023/05/08 21:33:54;;;;;;;4.10;2.78;;;;;;;11.75;48.36;101825.25;4990133;28;20062;-58
2023/05/08 21:36:22;;;;;;;3.80;2.80;;;;;;;11.71;48.89;101815.75;4991043;28;20057;-55
2023/05/08 21:38:49;;;;;;;7.38;2.90;;;;;;;11.69;49.92;101814.09;4983975;28;20058;-56
2023/05/08 21:41:16;;;;;;;8.02;3.42;;;;;;;11.67;49.36;101808.91;4991164;28;20057;-60
2023/05/08 21:43:43;;;;;;;5.70;3.17;;;;;;;11.65;48.96;101813.38;4988575;28;20058;-55
2023/05/08 21:46:10;;;;;;;5.05;2.70;;;;;;;11.60;49.22;101808.31;4972262;28;20494;-56
2023/05/08 21:48:37;;;;;;;7.53;3.40;;;;;;;11.53;49.18;101812.16;4987649;28;20674;-55
2023/05/08 21:51:05;;;;;;;8.30;3.10;;;;;;;11.49;49.12;101818.47;4992397;28;20053;-55
2023/05/08 21:53:32;;;;;;;6.88;3.60;;;;;;;11.43;48.99;101810.81;4986071;28;20057;-59
2023/05/08 21:55:59;;;;;;;9.43;3.17;;;;;;;11.38;49.28;101818.94;4982689;28;20050;-54
2023/05/08 21:58:26;;;;;;;5.68;3.08;;;;;;;11.29;49.87;101814.06;4982748;28;20051;-56
2023/05/08 22:00:53;;;;;;;6.55;3.50;;;;;;;11.21;49.67;101804.75;4979979;28;20057;-56
2023/05/08 22:03:24;;;;;;;7.13;3.13;;;;;;;11.15;49.89;101812.00;4984565;28;20507;-56
2023/05/08 22:05:52;;;;;;;5.70;3.47;;;;;;;11.08;50.28;101804.44;4971053;28;20057;-56
2023/05/08 22:15:41;;;;;;;6.68;3.28;;;;;;;10.84;50.94;101801.88;4974844;28;20049;-54
2023/05/08 22:18:58;;;;;;;4.25;3.13;;;;;;;10.79;51.09;101803.00;4989636;28;20067;-57
2023/05/08 22:21:28;;;;;;;5.60;3.10;;;;;;;10.74;51.19;101804.97;4992377;28;20052;-57
2023/05/08 22:24:45;;;;;;;7.18;2.95;;;;;;;10.68;51.37;101798.19;4997030;28;21236;-58
2023/05/08 22:27:12;;;;;;;7.70;3.63;;;;;;;10.63;51.81;101802.78;4993513;28;20066;-55
2023/05/08 22:29:40;;;;;;;16.23;3.55;;;;;;;10.57;52.06;101803.88;4985746;28;20050;-56
2023/05/08 22:32:07;;;;;;;5.32;2.95;;;;;;;10.53;52.00;101797.00;4983493;28;20080;-58
2023/05/08 22:34:59;;;;;;;4.60;3.25;;;;;;;10.48;52.43;101804.22;4987038;28;20053;-56
2023/05/08 22:38:16;;;;;;;5.07;3.15;;;;;;;10.43;52.36;101784.28;4988297;28;20135;-55
2023/05/08 22:40:46;;;;;;;8.65;3.90;;;;;;;10.38;52.65;101787.09;4992432;28;20076;-57
2023/05/08 22:43:13;;;;;;;7.03;4.00;;;;;;;10.34;52.66;101788.13;4991383;28;20394;-56
2023/05/08 22:45:40;;;;;;;5.95;3.38;;;;;;;10.27;53.03;101784.03;4993316;28;20387;-58
2023/05/08 22:48:57;;;;;;;6.75;3.67;;;;;;;10.21;53.84;101786.84;4984854;28;20046;-57
2023/05/08 22:52:14;;;;;;;9.85;3.72;;;;;;;10.13;53.71;101785.41;4985154;28;20057;-56
2023/05/08 22:54:41;;;;;;;8.50;3.58;;;;;;;10.09;53.88;101778.53;4980934;28;20061;-56
2023/05/08 22:57:08;;;;;;;5.05;3.30;;;;;;;10.06;54.18;101783.06;4978380;28;20057;-56
2023/05/08 22:59:36;;;;;;;8.93;3.65;;;;;;;10.03;54.68;101786.66;4973529;28;20054;-58
2023/05/08 23:02:03;;;;;;;5.60;3.50;;;;;;;9.98;54.72;101774.59;4986391;28;20056;-57
2023/05/08 23:04:30;;;;;;;4.45;2.95;;;;;;;9.94;55.13;101775.63;4994264;28;20080;-57
2023/05/08 23:06:57;;;;;;;8.38;4.15;;;;;;;9.91;55.30;101773.97;5003588;28;20055;-58
2023/05/08 23:09:24;;;;;;;7.53;3.85;;;;;;;9.89;55.19;101770.53;4997881;28;20064;-55
2023/05/08 23:11:51;;;;;;;6.80;3.33;;;;;;;9.84;54.62;101760.19;4983594;28;20391;-58
2023/05/08 23:14:19;;;;;;;5.22;3.22;;;;;;;9.80;55.99;101763.84;5024589;28;20050;-55
2023/05/08 23:16:46;;;;;;;5.82;3.03;;;;;;;9.77;55.83;101763.09;5016739;28;20050;-54
2023/05/08 23:19:14;;;;;;;6.40;3.88;;;;;;;9.73;56.09;101753.63;5002938;28;20068;-54
2023/05/08 23:21:41;;;;;;;6.30;3.67;;;;;;;9.69;56.07;101754.66;5010750;28;20074;-53
2023/05/08 23:24:08;;;;;;;7.18;4.18;;;;;;;9.64;56.57;101747.78;5006991;28;20074;-58
2023/05/08 23:26:35;;;;;;;5.07;3.72;;;;;;;9.61;56.34;101747.91;5010121;28;20379;-55
2023/05/08 23:29:02;;;;;;;7.45;3.50;;;;;;;9.58;57.06;101744.53;5012910;28;20036;-57
2023/05/08 23:31:30;;;;;;;6.47;3.80;;;;;;;9.53;57.00;101744.69;5015900;28;20064;-55
2023/05/08 23:33:57;;;;;;;9.25;4.50;;;;;;;9.50;57.28;101747.47;5023655;28;20059;-57
2023/05/08 23:36:24;;;;;;;10.30;4.28;;;;;;;9.46;57.69;101743.22;5001458;28;20051;-58
2023/05/08 23:38:51;;;;;;;4.85;2.95;;;;;;;9.43;57.72;101738.06;4992038;28;20060;-55
2023/05/08 23:41:18;;;;;;;5.22;3.42;;;;;;;9.40;57.53;101740.78;5015952;28;20128;-55
2023/05/08 23:43:46;;;;;;;7.78;3.78;;;;;;;9.36;57.65;101736.56;4999418;28;20481;-56
2023/05/08 23:46:13;;;;;;;6.32;3.50;;;;;;;9.32;58.31;101737.56;5008040;28;20088;-56
2023/05/08 23:48:40;;;;;;;5.53;3.78;;;;;;;9.28;58.00;101738.63;4999194;28;20040;-57